Time;durP1;ratioP1;P1;durP2;ratioP2;P2;SDS_P1;SDS_P2;PMS_P1;PMS_P2;Temp;Humidity;BMP_temperature;BMP_pressure;BME280_temperature;BME280_humidity;BME280_pressure;Samples;Min_cycle;Max_cycle;Signal;HPM_P1;HPM_P2
2022/08/06 00:02:24;;;;;;;5.43;4.35;;;;;;;17.65;100.00;90886.41;5051616;28;20033;-69
2022/08/06 00:04:50;;;;;;;6.03;4.80;;;;;;;17.55;100.00;90881.59;5050402;28;20038;-68
2022/08/06 00:07:16;;;;;;;5.28;4.25;;;;;;;17.50;100.00;90885.34;5050564;28;20391;-69
2022/08/06 00:09:42;;;;;;;4.53;4.10;;;;;;;17.49;100.00;90886.47;5050547;28;20032;-70
2022/08/06 00:12:08;;;;;;;5.80;4.72;;;;;;;17.41;100.00;90883.97;5053964;28;20025;-69
2022/08/06 00:14:34;;;;;;;5.05;4.15;;;;;;;17.38;100.00;90896.22;5054118;28;20029;-69
2022/08/06 00:17:00;;;;;;;6.30;5.03;;;;;;;17.38;100.00;90892.75;5054120;28;20035;-70
2022/08/06 00:19:26;;;;;;;5.13;3.97;;;;;;;17.18;100.00;90897.28;5054097;28;20029;-69
2022/08/06 00:21:52;;;;;;;4.38;3.95;;;;;;;17.02;100.00;90890.00;5053898;28;20461;-69
2022/08/06 00:24:19;;;;;;;4.18;3.60;;;;;;;16.98;100.00;90894.53;5053862;28;20024;-69
2022/08/06 00:26:45;;;;;;;5.60;3.95;;;;;;;16.94;100.00;90888.28;5054097;28;20465;-70
2022/08/06 00:29:10;;;;;;;3.90;3.47;;;;;;;17.02;100.00;90889.22;5053780;28;20506;-69
2022/08/06 00:31:36;;;;;;;5.07;3.75;;;;;;;17.13;100.00;90887.59;5053684;28;20120;-69
2022/08/06 00:34:03;;;;;;;5.60;3.83;;;;;;;17.13;100.00;90895.66;5053692;28;20440;-69
2022/08/06 00:36:31;;;;;;;5.68;4.03;;;;;;;17.18;100.00;90898.06;5053724;28;20029;-70
2022/08/06 00:38:58;;;;;;;5.03;3.72;;;;;;;17.16;100.00;90894.16;5053678;28;20063;-70
2022/08/06 00:41:24;;;;;;;5.15;4.38;;;;;;;17.05;100.00;90881.28;5053581;28;20029;-70
2022/08/06 00:43:50;;;;;;;3.58;3.28;;;;;;;17.01;100.00;90890.38;5053540;28;20028;-70
2022/08/06 00:46:15;;;;;;;5.53;4.07;;;;;;;16.90;100.00;90890.13;5053524;28;20033;-70
2022/08/06 00:48:41;;;;;;;5.30;4.05;;;;;;;16.83;100.00;90883.78;5053504;28;20032;-70
2022/08/06 00:51:06;;;;;;;4.40;3.78;;;;;;;16.85;100.00;90876.94;5053315;28;20036;-69
2022/08/06 00:53:32;;;;;;;4.28;3.40;;;;;;;16.72;100.00;90886.22;5053293;28;20021;-69
2022/08/06 00:55:58;;;;;;;6.43;4.03;;;;;;;16.81;100.00;90883.34;5053392;28;20032;-68
2022/08/06 00:58:24;;;;;;;4.15;3.42;;;;;;;16.87;100.00;90885.44;5053269;28;20031;-68
2022/08/06 01:00:49;;;;;;;5.47;3.72;;;;;;;16.87;100.00;90890.03;5053126;28;20108;-68
2022/08/06 01:03:17;;;;;;;4.55;3.65;;;;;;;16.84;100.00;90888.03;5053224;28;20028;-69
2022/08/06 01:05:43;;;;;;;4.97;3.42;;;;;;;16.74;100.00;90889.34;5052963;28;20450;-69
2022/08/06 01:08:10;;;;;;;5.65;3.60;;;;;;;16.73;100.00;90888.56;5053055;28;20029;-69
2022/08/06 01:10:36;;;;;;;6.03;4.03;;;;;;;16.69;100.00;90885.00;5053092;28;20483;-69
2022/08/06 01:13:02;;;;;;;5.03;3.60;;;;;;;16.73;100.00;90883.19;5052842;28;20054;-69
2022/08/06 01:15:27;;;;;;;3.97;3.47;;;;;;;16.79;100.00;90881.03;5052912;28;20032;-69
2022/08/06 01:18:03;;;;;;;5.75;3.90;;;;;;;16.80;100.00;90887.19;5052919;28;20029;-69
2022/08/06 01:20:41;;;;;;;4.82;3.55;;;;;;;16.79;100.00;90888.31;5052829;28;20509;-69
2022/08/06 01:23:21;;;;;;;4.10;3.50;;;;;;;16.76;100.00;90887.88;5052785;28;20032;-69
2022/08/06 01:26:06;;;;;;;5.03;3.63;;;;;;;16.73;100.00;90890.47;5052780;28;20029;-69
2022/08/06 01:28:39;;;;;;;7.30;3.92;;;;;;;16.63;100.00;90889.03;5038502;28;20037;-69
2022/08/06 01:31:17;;;;;;;4.53;3.50;;;;;;;16.59;100.00;90887.41;5052595;28;20090;-69
2022/08/06 01:33:52;;;;;;;4.57;3.38;;;;;;;16.53;100.00;90880.72;5052477;28;20078;-69
2022/08/06 01:36:39;;;;;;;4.72;4.15;;;;;;;16.50;100.00;90881.41;5052513;28;20052;-69
2022/08/06 01:39:04;;;;;;;5.03;3.92;;;;;;;16.51;100.00;90875.69;5052515;28;20021;-69
2022/08/06 01:41:42;;;;;;;11.25;3.97;;;;;;;16.56;100.00;90877.34;5052365;28;20383;-69
2022/08/06 01:44:14;;;;;;;5.65;3.47;;;;;;;16.56;100.00;90874.66;5052312;28;20071;-69
2022/08/06 01:46:44;;;;;;;4.13;3.60;;;;;;;16.52;100.00;90871.09;5052404;28;20598;-68
2022/08/06 01:49:11;;;;;;;4.75;3.60;;;;;;;16.51;100.00;90872.22;5052259;28;20696;-68
2022/08/06 01:51:37;;;;;;;5.80;4.03;;;;;;;16.42;100.00;90869.72;5052242;28;20032;-68
2022/08/06 01:54:06;;;;;;;4.07;3.58;;;;;;;16.35;100.00;90873.00;5052139;28;20079;-69
2022/08/06 01:56:38;;;;;;;3.70;3.40;;;;;;;16.32;100.00;90870.22;5052162;28;20406;-69
2022/08/06 01:59:05;;;;;;;4.05;3.25;;;;;;;16.40;100.00;90880.00;5052275;28;20041;-69
2022/08/06 02:01:34;;;;;;;4.05;3.60;;;;;;;16.44;100.00;90876.31;5052039;28;20493;-68
2022/08/06 02:04:02;;;;;;;4.22;3.83;;;;;;;16.48;100.00;90874.47;5051790;28;20490;-68
2022/08/06 02:06:33;;;;;;;4.07;3.33;;;;;;;16.44;100.00;90868.25;5051984;28;20129;-68
2022/08/06 02:09:03;;;;;;;5.72;4.32;;;;;;;16.27;100.00;90846.31;5051988;28;20025;-68
2022/08/06 02:11:32;;;;;;;3.47;3.10;;;;;;;16.28;100.00;90864.75;5052612;28;20521;-68
2022/08/06 02:13:59;;;;;;;3.97;3.50;;;;;;;16.25;100.00;90862.75;5052010;28;20032;-68
2022/08/06 02:16:28;;;;;;;4.18;3.53;;;;;;;16.32;100.00;90871.00;5051844;28;20056;-67
2022/08/06 02:18:57;;;;;;;4.50;3.38;;;;;;;16.23;100.00;90856.16;5051759;28;20029;-67
2022/08/06 02:21:24;;;;;;;4.93;3.60;;;;;;;16.36;100.00;90868.41;5051682;28;20047;-68
2022/08/06 02:23:52;;;;;;;5.07;3.70;;;;;;;16.32;100.00;90854.88;5051638;28;20485;-68
2022/08/06 02:26:19;;;;;;;5.20;3.78;;;;;;;16.29;100.00;90852.91;5051575;28;20127;-68
2022/08/06 02:28:48;;;;;;;6.20;4.40;;;;;;;16.31;100.00;90858.69;5051564;28;20032;-68
2022/08/06 02:31:14;;;;;;;3.95;3.25;;;;;;;16.29;100.00;90850.22;5051486;28;20036;-68
2022/08/06 02:33:40;;;;;;;3.78;3.33;;;;;;;16.20;100.00;90854.16;5033164;28;20501;-68
2022/08/06 02:36:19;;;;;;;4.05;3.45;;;;;;;16.08;100.00;90855.78;5051466;28;20028;-68
2022/08/06 02:38:48;;;;;;;4.40;3.33;;;;;;;15.93;100.00;90856.53;5051387;28;20410;-68
2022/08/06 02:41:30;;;;;;;4.18;3.47;;;;;;;15.93;100.00;90864.56;5051316;28;20044;-69
2022/08/06 02:44:10;;;;;;;3.67;3.10;;;;;;;16.00;100.00;90866.69;5051334;28;20029;-68
2022/08/06 02:46:49;;;;;;;5.70;4.57;;;;;;;16.07;100.00;90869.56;5051382;28;20490;-68
2022/08/06 02:49:27;;;;;;;6.30;4.22;;;;;;;16.12;100.00;90864.75;5051273;28;20028;-68
2022/08/06 02:52:04;;;;;;;4.82;4.10;;;;;;;16.03;100.00;90866.00;5051420;28;20025;-68
2022/08/06 02:54:44;;;;;;;5.72;3.90;;;;;;;15.82;100.00;90858.16;5051349;28;20124;-68
2022/08/06 02:57:16;;;;;;;3.75;3.25;;;;;;;15.82;100.00;90860.84;5051199;28;20043;-68
2022/08/06 02:59:48;;;;;;;3.67;3.25;;;;;;;15.75;100.00;90861.41;5051119;28;20025;-68
2022/08/06 03:02:16;;;;;;;3.50;3.07;;;;;;;15.73;100.00;90860.97;5051030;28;20490;-68
2022/08/06 03:04:46;;;;;;;4.75;3.88;;;;;;;15.67;100.00;90859.66;5050961;28;20043;-67
2022/08/06 03:07:13;;;;;;;5.15;4.15;;;;;;;15.55;100.00;90851.63;5051104;28;20033;-68
2022/08/06 03:10:19;;;;;;;4.22;3.70;;;;;;;15.57;100.00;90860.88;5181269;23;20058;-69
2022/08/06 03:12:45;;;;;;;3.63;3.30;;;;;;;15.66;100.00;90863.47;5030839;28;20030;-70
2022/08/06 03:15:12;;;;;;;3.95;3.15;;;;;;;15.69;100.00;90865.47;5031003;28;20418;-68
2022/08/06 03:17:42;;;;;;;5.50;3.67;;;;;;;15.62;100.00;90857.25;5030910;28;20036;-71
2022/08/06 03:20:09;;;;;;;4.53;3.88;;;;;;;15.68;100.00;90866.59;5030722;28;20033;-69
2022/08/06 03:22:36;;;;;;;4.78;3.78;;;;;;;15.64;100.00;90860.34;5030898;28;20025;-69
2022/08/06 03:25:05;;;;;;;4.32;3.63;;;;;;;15.56;100.00;90863.91;5030885;28;20110;-70
2022/08/06 03:27:32;;;;;;;4.82;4.07;;;;;;;15.53;100.00;90870.75;5030872;28;20148;-69
2022/08/06 03:29:59;;;;;;;4.43;3.22;;;;;;;15.57;100.00;90868.94;5030647;28;20030;-69
2022/08/06 03:32:25;;;;;;;3.92;3.40;;;;;;;15.69;100.00;90868.16;5030681;28;20030;-68
2022/08/06 03:34:52;;;;;;;4.80;3.42;;;;;;;15.73;100.00;90862.88;5030670;28;20410;-69
2022/08/06 03:37:20;;;;;;;7.95;3.88;;;;;;;15.78;100.00;90866.13;5030779;28;20029;-69
2022/08/06 03:39:48;;;;;;;4.13;3.35;;;;;;;15.76;100.00;90862.97;5030656;28;20511;-67
2022/08/06 03:42:14;;;;;;;5.43;3.65;;;;;;;15.83;100.00;90868.56;5030634;28;20155;-69
2022/08/06 03:44:40;;;;;;;4.53;3.42;;;;;;;15.90;100.00;90867.16;5030710;28;20496;-71
2022/08/06 03:47:12;;;;;;;4.22;3.55;;;;;;;15.90;100.00;90859.13;5034356;28;20084;-69
2022/08/06 03:49:45;;;;;;;3.28;2.97;;;;;;;15.92;100.00;90867.59;5034367;28;20040;-69
2022/08/06 03:52:18;;;;;;;4.00;3.55;;;;;;;15.91;100.00;90858.78;5033575;28;20033;-68
2022/08/06 03:54:48;;;;;;;4.22;3.42;;;;;;;16.06;100.00;90860.72;5033670;28;20060;-68
2022/08/06 03:57:19;;;;;;;5.07;3.40;;;;;;;16.11;100.00;90857.03;5031313;28;20423;-68
2022/08/06 03:59:48;;;;;;;5.35;3.47;;;;;;;16.01;100.00;90855.63;5034228;28;20087;-69
2022/08/06 04:02:15;;;;;;;8.63;5.00;;;;;;;15.96;100.00;90863.91;5034201;28;20029;-67
2022/08/06 04:04:43;;;;;;;5.15;4.13;;;;;;;15.96;100.00;90866.59;5034199;28;20033;-68
2022/08/06 04:07:09;;;;;;;3.78;3.30;;;;;;;16.03;100.00;90863.31;5034165;28;20033;-69
2022/08/06 04:09:36;;;;;;;6.03;3.40;;;;;;;16.11;100.00;90870.44;5033683;28;20124;-68
2022/08/06 04:12:03;;;;;;;4.38;3.72;;;;;;;16.29;100.00;90871.69;5034101;28;20056;-68
2022/08/06 04:14:29;;;;;;;4.15;3.13;;;;;;;16.51;100.00;90878.38;5033913;28;20033;-69
2022/08/06 04:16:56;;;;;;;5.03;3.70;;;;;;;16.63;100.00;90878.31;5033976;28;20037;-68
2022/08/06 04:19:23;;;;;;;3.55;3.25;;;;;;;16.65;100.00;90868.00;5033819;28;20021;-68
2022/08/06 04:21:49;;;;;;;4.43;3.58;;;;;;;16.75;100.00;90880.16;5033880;28;20518;-68
2022/08/06 04:24:15;;;;;;;4.00;3.60;;;;;;;16.85;100.00;90878.84;5033800;28;20036;-67
2022/08/06 04:26:43;;;;;;;5.05;3.60;;;;;;;16.97;100.00;90882.22;5033816;28;20116;-68
2022/08/06 04:29:15;;;;;;;5.30;3.53;;;;;;;17.16;100.00;90886.09;5033613;28;20115;-68
2022/08/06 04:31:44;;;;;;;4.90;3.55;;;;;;;17.31;100.00;90885.28;5033987;28;20403;-68
2022/08/06 04:34:11;;;;;;;4.00;3.30;;;;;;;17.56;100.00;90892.00;5033592;28;20036;-68
2022/08/06 04:36:37;;;;;;;5.72;3.88;;;;;;;17.76;100.00;90889.38;5033566;28;20160;-67
2022/08/06 04:39:03;;;;;;;4.55;3.58;;;;;;;18.08;100.00;90890.03;5033573;28;20104;-68
2022/08/06 04:41:29;;;;;;;3.15;2.83;;;;;;;18.34;97.16;90897.44;5033522;28;20033;-68
2022/08/06 04:43:54;;;;;;;4.03;3.63;;;;;;;18.22;96.12;90883.00;5033471;28;20024;-69
2022/08/06 04:46:21;;;;;;;3.13;2.83;;;;;;;18.18;97.29;90887.53;5033382;28;20033;-70
2022/08/06 04:48:47;;;;;;;4.38;3.50;;;;;;;18.17;98.72;90894.06;5033521;28;20112;-70
2022/08/06 04:51:13;;;;;;;4.90;3.40;;;;;;;18.13;98.44;90893.19;5033306;28;20037;-69
2022/08/06 04:53:41;;;;;;;4.75;3.38;;;;;;;18.04;99.07;90895.34;5033182;28;20554;-70
2022/08/06 04:56:08;;;;;;;4.60;3.38;;;;;;;18.04;100.00;90894.56;5032939;28;20033;-70
2022/08/06 04:58:34;;;;;;;4.28;3.83;;;;;;;18.07;100.00;90891.94;5033132;28;20107;-70
2022/08/06 05:01:00;;;;;;;4.63;3.58;;;;;;;18.13;100.00;90895.88;5033205;28;20029;-70
2022/08/06 05:03:27;;;;;;;4.90;3.58;;;;;;;18.26;100.00;90907.28;5033184;28;20026;-70
2022/08/06 05:06:00;;;;;;;5.05;3.72;;;;;;;18.27;100.00;90903.47;5033121;28;20033;-70
2022/08/06 05:08:28;;;;;;;5.35;4.35;;;;;;;18.37;100.00;90902.13;5033059;28;20032;-70
2022/08/06 05:11:00;;;;;;;5.00;3.55;;;;;;;18.49;100.00;90905.44;5032946;28;20046;-71
2022/08/06 05:13:30;;;;;;;5.20;3.40;;;;;;;19.95;93.20;90901.63;5033067;28;20025;-70
2022/08/06 05:16:00;;;;;;;4.13;3.60;;;;;;;23.27;70.18;90897.44;5033302;28;20056;-71
2022/08/06 05:18:33;;;;;;;3.53;3.22;;;;;;;25.51;58.76;90898.66;5032914;28;20112;-70
2022/08/06 05:21:00;;;;;;;7.90;3.67;;;;;;;27.10;53.52;90904.47;5032892;28;20042;-71
2022/08/06 05:23:48;;;;;;;5.82;3.92;;;;;;;28.85;49.92;90905.09;5032831;28;20418;-70
2022/08/06 05:26:13;;;;;;;4.22;3.35;;;;;;;29.89;47.57;90903.66;5032813;28;20190;-71
2022/08/06 05:28:40;;;;;;;4.80;3.55;;;;;;;28.05;49.41;90908.91;5032614;28;20029;-71
2022/08/06 05:31:05;;;;;;;3.80;3.40;;;;;;;28.10;50.44;90905.72;5032507;28;20033;-71
2022/08/06 05:33:36;;;;;;;3.95;3.55;;;;;;;30.25;46.39;90902.78;5032348;28;20079;-70
2022/08/06 05:36:03;;;;;;;3.85;3.55;;;;;;;32.37;42.97;90905.31;5032794;28;20068;-71
2022/08/06 05:38:31;;;;;;;4.18;3.78;;;;;;;33.55;40.63;90910.19;5032558;28;20457;-71
2022/08/06 05:40:56;;;;;;;3.47;3.17;;;;;;;34.29;38.46;90908.50;5032595;28;20032;-71
2022/08/06 05:43:22;;;;;;;4.70;3.20;;;;;;;35.39;37.46;90910.16;5032503;28;20414;-71
2022/08/06 05:45:53;;;;;;;3.97;3.63;;;;;;;35.36;35.78;90911.09;5032463;28;20116;-71
2022/08/06 05:48:20;;;;;;;3.17;2.95;;;;;;;35.00;36.28;90902.78;5032303;28;20029;-71
2022/08/06 05:51:01;;;;;;;3.40;3.08;;;;;;;36.04;34.40;90907.22;5032381;28;20044;-71
2022/08/06 05:53:35;;;;;;;3.50;3.10;;;;;;;37.38;33.40;90908.03;5032255;28;20026;-71
2022/08/06 05:56:10;;;;;;;3.03;2.60;;;;;;;36.76;32.91;90910.81;5032278;28;20036;-71
2022/08/06 05:58:57;;;;;;;13.75;9.38;;;;;;;37.12;33.65;90907.03;5031930;28;20028;-71
2022/08/06 06:01:25;;;;;;;3.47;3.17;;;;;;;33.03;37.52;90909.69;5031570;28;20364;-71
2022/08/06 06:03:53;;;;;;;6.78;3.92;;;;;;;30.72;41.48;90907.84;5032079;28;20025;-71
2022/08/06 06:06:20;;;;;;;18.40;13.98;;;;;;;29.81;43.89;90908.50;5032262;28;20060;-71
2022/08/06 06:08:46;;;;;;;10.20;7.78;;;;;;;29.42;44.79;90903.91;5031030;28;20104;-70
2022/08/06 06:11:12;;;;;;;4.57;4.00;;;;;;;28.76;47.03;90907.63;5032267;28;20112;-70
2022/08/06 06:13:40;;;;;;;6.68;5.10;;;;;;;29.39;46.56;90909.50;5031931;28;20041;-70
2022/08/06 06:16:18;;;;;;;4.07;3.60;;;;;;;28.67;48.11;90907.41;5031884;28;20076;-70
2022/08/06 06:19:06;;;;;;;5.93;3.90;;;;;;;28.54;48.86;90903.75;5031694;28;20418;-70
2022/08/06 06:22:02;;;;;;;4.40;3.97;;;;;;;29.39;47.84;90909.50;5031795;28;20026;-71
2022/08/06 06:24:27;;;;;;;4.85;3.65;;;;;;;32.62;42.55;90904.44;5031670;28;20447;-71
2022/08/06 06:27:05;;;;;;;7.78;6.07;;;;;;;34.86;38.50;90895.09;5031650;28;20040;-70
2022/08/06 06:29:55;;;;;;;7.22;6.13;;;;;;;35.79;36.63;90892.50;5031579;28;20029;-71
2022/08/06 06:32:59;;;;;;;4.90;3.75;;;;;;;37.66;33.86;90908.53;5031589;28;20052;-71
2022/08/06 06:35:56;;;;;;;10.73;4.07;;;;;;;39.66;31.90;90902.72;5031706;28;20026;-69
2022/08/06 06:38:57;;;;;;;3.33;3.03;;;;;;;41.73;28.83;90904.75;5030439;28;20116;-70
2022/08/06 06:41:45;;;;;;;3.53;3.22;;;;;;;40.93;28.83;90896.59;5006478;28;20041;-70
2022/08/06 06:44:24;;;;;;;3.20;2.90;;;;;;;40.15;29.55;90895.31;5031286;28;20033;-70
2022/08/06 06:47:03;;;;;;;3.10;2.80;;;;;;;40.68;29.75;90886.28;5031272;28;20021;-70
2022/08/06 06:49:44;;;;;;;3.25;2.80;;;;;;;41.82;28.16;90892.56;5031087;28;20033;-72
2022/08/06 06:52:14;;;;;;;3.63;3.05;;;;;;;40.73;27.87;90896.72;5031325;28;20037;-72
2022/08/06 06:54:45;;;;;;;3.15;2.70;;;;;;;38.98;29.49;90878.16;5031253;28;20029;-70
2022/08/06 06:57:18;;;;;;;2.88;2.67;;;;;;;39.18;29.95;90875.38;5031367;28;20112;-70
2022/08/06 06:59:47;;;;;;;2.75;2.55;;;;;;;40.55;28.21;90875.56;5031172;28;20116;-69
2022/08/06 07:02:21;;;;;;;2.83;2.63;;;;;;;39.70;29.38;90880.97;5031270;28;20079;-69
2022/08/06 07:04:48;;;;;;;3.60;3.22;;;;;;;39.30;29.73;90877.03;5031283;28;20041;-69
2022/08/06 07:07:15;;;;;;;2.90;2.60;;;;;;;41.03;28.78;90874.84;5031231;28;20490;-69
2022/08/06 07:09:43;;;;;;;3.00;2.70;;;;;;;42.02;27.32;90874.81;5030935;28;20529;-70
2022/08/06 07:12:11;;;;;;;4.82;3.20;;;;;;;43.58;26.40;90879.28;5031426;28;20112;-71
2022/08/06 07:14:38;;;;;;;2.85;2.65;;;;;;;45.12;24.85;90879.78;5031023;28;20033;-70
2022/08/06 07:17:05;;;;;;;2.47;2.28;;;;;;;44.78;24.47;90880.16;5031096;28;20026;-70
2022/08/06 07:19:33;;;;;;;5.00;3.15;;;;;;;46.09;23.95;90872.44;5032217;28;20031;-71
2022/08/06 07:21:59;;;;;;;3.67;2.78;;;;;;;44.58;25.01;90863.78;5035055;28;20380;-71
2022/08/06 07:24:30;;;;;;;2.95;2.67;;;;;;;45.52;23.87;90875.22;5035059;28;20040;-71
2022/08/06 07:26:57;;;;;;;3.10;2.80;;;;;;;44.14;24.76;90867.72;5035125;28;20487;-70
2022/08/06 07:29:24;;;;;;;14.18;5.05;;;;;;;44.67;23.30;90874.66;5034320;28;20487;-71
2022/08/06 07:31:50;;;;;;;3.85;3.20;;;;;;;44.24;24.23;90873.78;5034749;28;20033;-70
2022/08/06 07:34:16;;;;;;;2.97;2.53;;;;;;;44.64;23.86;90872.13;5035195;28;20465;-70
2022/08/06 07:37:02;;;;;;;5.47;3.50;;;;;;;41.73;27.28;90867.69;5035200;28;20072;-69
2022/08/06 07:39:32;;;;;;;5.15;3.58;;;;;;;42.10;26.91;90875.84;5034480;28;20038;-69
2022/08/06 07:42:01;;;;;;;10.40;9.50;;;;;;;41.08;27.90;90871.28;5034869;28;20033;-69
2022/08/06 07:44:28;;;;;;;5.88;3.65;;;;;;;41.55;27.66;90864.06;5034642;28;20100;-68
2022/08/06 07:46:57;;;;;;;3.30;3.00;;;;;;;38.76;29.43;90859.94;5034740;28;20033;-69
2022/08/06 07:49:26;;;;;;;2.50;2.30;;;;;;;38.32;29.76;90863.66;5034687;28;20057;-68
2022/08/06 07:51:54;;;;;;;2.70;2.45;;;;;;;39.11;29.60;90859.88;5035982;28;20083;-66
2022/08/06 07:54:23;;;;;;;2.83;2.55;;;;;;;39.09;29.65;90858.84;5034849;28;20454;-69
2022/08/06 07:56:48;;;;;;;3.45;2.28;;;;;;;39.75;29.32;90857.97;5034531;28;20383;-73
2022/08/06 07:59:15;;;;;;;4.25;3.58;;;;;;;40.35;29.13;90856.94;5034612;28;20083;-70
2022/08/06 08:01:41;;;;;;;3.00;2.70;;;;;;;41.53;27.43;90854.69;5034474;28;20030;-73
2022/08/06 08:06:53;;;;;;;2.63;2.17;;;;;;;43.38;24.94;90868.44;5034652;28;20033;-73
2022/08/06 08:09:22;;;;;;;2.40;2.00;;;;;;;43.60;24.73;90855.06;5033975;28;20041;-73
2022/08/06 08:11:48;;;;;;;2.38;1.98;;;;;;;42.52;25.46;90857.25;5034269;28;20048;-73
2022/08/06 08:14:20;;;;;;;2.67;2.45;;;;;;;40.60;26.96;90858.13;5034105;28;20068;-73
2022/08/06 08:16:46;;;;;;;2.20;2.00;;;;;;;39.81;27.20;90859.56;5034261;28;20559;-73
2022/08/06 08:19:24;;;;;;;2.33;1.98;;;;;;;39.47;28.29;90858.50;5034018;28;20488;-73
2022/08/06 08:21:51;;;;;;;2.55;2.08;;;;;;;39.83;28.15;90867.44;5034115;28;20075;-73
2022/08/06 08:24:17;;;;;;;6.75;5.35;;;;;;;41.07;26.03;90861.38;5033944;28;20025;-73
2022/08/06 08:26:43;;;;;;;22.98;15.63;;;;;;;41.95;26.53;90867.69;5034031;28;20033;-76
2022/08/06 08:29:12;;;;;;;4.88;3.55;;;;;;;42.42;25.67;90860.28;5033859;28;20109;-72
2022/08/06 08:31:37;;;;;;;5.00;2.20;;;;;;;41.94;26.54;90870.97;5033237;28;20040;-72
2022/08/06 08:34:03;;;;;;;3.55;2.33;;;;;;;41.45;26.73;90870.41;5033891;28;20033;-72
2022/08/06 08:36:28;;;;;;;3.88;2.60;;;;;;;42.37;26.35;90875.06;5033762;28;20048;-73
2022/08/06 08:38:57;;;;;;;3.97;3.67;;;;;;;42.84;25.13;90877.28;5033669;28;20032;-73
2022/08/06 08:41:26;;;;;;;2.65;2.45;;;;;;;43.60;26.29;90868.31;5033763;28;20526;-73
2022/08/06 08:44:03;;;;;;;2.47;2.28;;;;;;;45.64;23.89;90873.81;5033622;28;20029;-73
2022/08/06 08:46:32;;;;;;;5.82;2.75;;;;;;;43.72;25.21;90864.19;5033900;28;20498;-73
2022/08/06 08:49:02;;;;;;;2.40;2.17;;;;;;;43.90;24.58;90868.41;5033507;28;20495;-73
2022/08/06 08:51:28;;;;;;;3.92;2.45;;;;;;;43.28;25.72;90865.16;5033621;28;20036;-73
2022/08/06 08:53:58;;;;;;;2.40;2.20;;;;;;;41.33;26.59;90854.88;5033602;28;20029;-73
2022/08/06 08:56:24;;;;;;;5.25;2.67;;;;;;;42.24;26.55;90866.44;5033670;28;20033;-73
2022/08/06 08:58:51;;;;;;;2.53;2.33;;;;;;;41.65;26.74;90861.78;5033317;28;20033;-73
2022/08/06 09:01:18;;;;;;;2.95;2.70;;;;;;;42.84;25.69;90866.06;5033371;28;20041;-73
2022/08/06 09:03:43;;;;;;;2.83;2.22;;;;;;;41.10;26.48;90863.16;5033305;28;20483;-73
2022/08/06 09:06:11;;;;;;;3.08;2.78;;;;;;;40.80;26.89;90853.63;5033287;28;20030;-73
2022/08/06 09:08:37;;;;;;;5.03;3.00;;;;;;;39.93;28.80;90854.09;5032964;28;20128;-74
2022/08/06 09:11:03;;;;;;;2.55;2.35;;;;;;;37.52;30.48;90864.88;5033540;28;20079;-73
2022/08/06 09:13:29;;;;;;;3.17;2.83;;;;;;;35.16;33.25;90852.69;5033101;28;20447;-73
2022/08/06 09:15:56;;;;;;;3.05;2.75;;;;;;;33.63;35.65;90861.81;5033139;28;20113;-73
2022/08/06 09:18:23;;;;;;;5.07;4.57;;;;;;;33.42;35.65;90863.38;5033007;28;20029;-75
2022/08/06 09:20:48;;;;;;;3.63;3.13;;;;;;;32.09;37.14;90858.19;5033043;28;20544;-75
2022/08/06 09:23:17;;;;;;;4.57;3.80;;;;;;;32.40;36.78;90849.34;5032950;28;20025;-74
2022/08/06 09:25:44;;;;;;;3.33;2.92;;;;;;;32.30;37.09;90856.75;5032989;28;20578;-74
2022/08/06 09:28:28;;;;;;;2.60;2.40;;;;;;;32.90;37.41;90856.63;5032823;28;20029;-74
2022/08/06 09:30:59;;;;;;;2.55;2.28;;;;;;;32.14;37.64;90854.88;5032832;28;20037;-74
2022/08/06 09:33:24;;;;;;;3.88;2.78;;;;;;;31.46;38.91;90855.50;5032763;28;20021;-73
2022/08/06 09:36:19;;;;;;;4.05;3.00;;;;;;;31.15;39.23;90850.50;5032739;28;20047;-74
2022/08/06 09:38:47;;;;;;;3.22;2.30;;;;;;;30.83;39.36;90854.19;5015569;28;20038;-74
2022/08/06 09:41:14;;;;;;;3.58;2.60;;;;;;;29.83;41.14;90852.50;5032653;28;20033;-73
2022/08/06 09:43:41;;;;;;;2.50;2.30;;;;;;;29.76;42.15;90853.41;5031508;28;20105;-73
2022/08/06 09:46:07;;;;;;;2.47;2.28;;;;;;;29.97;41.14;90850.13;5032474;28;20580;-73
2022/08/06 09:48:33;;;;;;;3.20;2.70;;;;;;;30.37;40.84;90855.41;5032404;28;20493;-74
2022/08/06 09:50:58;;;;;;;3.22;2.92;;;;;;;30.39;40.62;90844.78;5032470;28;20529;-74
2022/08/06 09:53:24;;;;;;;4.05;3.05;;;;;;;30.46;40.85;90857.56;5032409;28;20026;-73
2022/08/06 09:55:52;;;;;;;8.60;6.22;;;;;;;30.84;40.69;90854.94;5032211;28;20033;-73
2022/08/06 09:58:35;;;;;;;11.25;5.13;;;;;;;30.75;41.32;90843.81;5032137;28;20164;-74
2022/08/06 10:01:18;;;;;;;6.72;4.57;;;;;;;32.10;39.67;90845.22;5032242;28;20495;-74
2022/08/06 10:03:44;;;;;;;;;;;;;;;32.84;39.04;90847.41;5032608;28;20026;-74
2022/08/06 10:06:12;;;;;;;2.95;2.60;;;;;;;32.74;37.96;90846.53;5032061;28;19920;-74
2022/08/06 10:08:38;;;;;;;3.35;2.70;;;;;;;33.14;37.60;90845.91;5031782;28;20091;-74
2022/08/06 10:11:04;;;;;;;6.82;4.53;;;;;;;35.15;35.35;90833.78;5032066;28;20406;-74
2022/08/06 10:13:31;;;;;;;3.80;2.90;;;;;;;39.45;30.14;90852.66;5032153;28;20479;-74
2022/08/06 10:15:59;;;;;;;2.30;2.10;;;;;;;42.80;27.50;90838.38;5014173;28;20041;-74
2022/08/06 10:18:47;;;;;;;3.00;2.70;;;;;;;39.55;29.36;90836.56;5031876;28;20025;-74
2022/08/06 10:21:17;;;;;;;3.88;3.42;;;;;;;38.08;31.07;90835.25;5031938;28;20036;-74
2022/08/06 10:23:46;;;;;;;3.42;2.40;;;;;;;37.62;31.15;90821.16;5031769;28;20468;-74
2022/08/06 10:26:13;;;;;;;2.90;2.60;;;;;;;36.02;33.51;90821.06;5032012;28;20044;-74
2022/08/06 10:28:41;;;;;;;18.33;13.50;;;;;;;34.36;35.26;90828.13;5031692;28;20511;-74
2022/08/06 10:31:10;;;;;;;3.83;3.50;;;;;;;34.42;36.18;90823.53;5031691;28;20550;-74
2022/08/06 10:34:07;;;;;;;2.80;2.60;;;;;;;33.73;37.32;90826.72;5031690;28;20060;-74
2022/08/06 10:36:39;;;;;;;4.88;3.22;;;;;;;33.06;36.80;90839.13;5004112;28;20514;-74
2022/08/06 10:39:05;;;;;;;7.47;3.10;;;;;;;33.44;37.01;90835.34;5031550;28;20104;-74
2022/08/06 10:41:34;;;;;;;4.22;3.22;;;;;;;32.94;37.77;90832.47;5031520;28;20033;-74
2022/08/06 10:44:01;;;;;;;3.95;3.25;;;;;;;32.25;38.38;90829.75;5031301;28;20026;-74
2022/08/06 10:46:28;;;;;;;2.97;2.47;;;;;;;31.91;38.76;90838.00;5031467;28;20116;-74
2022/08/06 10:48:54;;;;;;;4.78;3.40;;;;;;;31.93;39.65;90828.06;5031583;28;20056;-74
2022/08/06 10:51:20;;;;;;;4.18;3.33;;;;;;;31.75;40.72;90834.16;5031680;28;20030;-74
2022/08/06 10:53:46;;;;;;;2.60;2.40;;;;;;;31.45;39.44;90820.97;5031113;28;20029;-73
2022/08/06 10:56:13;;;;;;;4.82;3.17;;;;;;;31.62;40.95;90825.13;5031288;28;20090;-73
2022/08/06 10:58:39;;;;;;;2.88;2.58;;;;;;;31.22;40.53;90827.53;5031197;28;20406;-73
2022/08/06 11:01:43;;;;;;;4.03;2.80;;;;;;;31.35;40.60;90830.31;5031261;28;20073;-75
2022/08/06 11:04:38;;;;;;;7.68;5.68;;;;;;;30.82;41.39;90824.41;5028675;28;20038;-73
2022/08/06 11:07:04;;;;;;;3.80;3.33;;;;;;;30.41;41.56;90828.63;5030105;28;20056;-73
2022/08/06 11:09:48;;;;;;;2.80;2.38;;;;;;;29.83;41.53;90828.56;5030836;28;20037;-73
2022/08/06 11:12:22;;;;;;;3.22;2.67;;;;;;;29.45;41.94;90828.28;5031010;28;20033;-73
2022/08/06 11:14:49;;;;;;;3.25;2.95;;;;;;;29.27;42.09;90819.72;5031085;28;20044;-74
2022/08/06 11:17:16;;;;;;;4.07;2.85;;;;;;;29.42;42.44;90820.91;5030989;28;20586;-73
2022/08/06 11:19:43;;;;;;;3.58;3.08;;;;;;;30.40;42.87;90818.88;5030897;28;20037;-74
2022/08/06 11:22:34;;;;;;;3.72;2.70;;;;;;;30.77;40.53;90819.44;5030941;28;20045;-73
2022/08/06 11:25:02;;;;;;;2.65;2.45;;;;;;;31.22;39.52;90824.78;5030844;28;20033;-73
2022/08/06 11:27:47;;;;;;;3.00;2.70;;;;;;;30.70;40.42;90829.41;5030850;28;20037;-74
2022/08/06 11:30:13;;;;;;;3.63;2.97;;;;;;;32.52;40.59;90825.72;5030863;28;20041;-73
2022/08/06 11:32:53;;;;;;;3.42;2.80;;;;;;;33.45;38.14;90831.38;5030861;28;20048;-73
2022/08/06 11:35:40;;;;;;;2.97;2.50;;;;;;;33.63;37.18;90831.47;5030882;28;20041;-73
2022/08/06 11:38:10;;;;;;;2.63;2.42;;;;;;;35.01;35.24;90827.66;5030696;28;20065;-73
2022/08/06 11:41:01;;;;;;;3.03;2.83;;;;;;;35.26;34.63;90828.53;5030992;28;20049;-73
2022/08/06 11:44:02;;;;;;;3.50;2.45;;;;;;;34.50;35.01;90827.53;5030678;28;20502;-73
2022/08/06 11:46:32;;;;;;;3.10;2.78;;;;;;;33.95;36.96;90819.16;5030684;28;20120;-73
2022/08/06 11:49:02;;;;;;;4.63;2.72;;;;;;;35.98;34.93;90822.00;5030665;28;20426;-73